sensor_id;sensor_type;location;lat;lon;timestamp;pressure;altitude;pressure_sealevel;temperature;humidity
53546;BME280;39432;51.902;10.844;2023-02-03T00:01:10;99983.81;;;6.06;100.00
53546;BME280;39432;51.902;10.844;2023-02-03T00:03:40;99972.09;;;6.05;100.00
53546;BME280;39432;51.902;10.844;2023-02-03T00:06:09;99969.13;;;6.14;100.00
53546;BME280;39432;51.902;10.844;2023-02-03T00:08:39;99971.41;;;6.17;100.00
53546;BME280;39432;51.902;10.844;2023-02-03T00:11:12;99966.97;;;6.22;100.00
53546;BME280;39432;51.902;10.844;2023-02-03T00:13:41;99962.78;;;6.20;100.00
53546;BME280;39432;51.902;10.844;2023-02-03T00:16:11;99958.59;;;6.24;100.00
53546;BME280;39432;51.902;10.844;2023-02-03T00:18:40;99957.53;;;6.25;100.00
53546;BME280;39432;51.902;10.844;2023-02-03T00:21:10;99953.56;;;6.27;100.00
53546;BME280;39432;51.902;10.844;2023-02-03T00:23:40;99949.38;;;6.25;100.00
53546;BME280;39432;51.902;10.844;2023-02-03T00:26:15;99947.28;;;6.27;100.00
53546;BME280;39432;51.902;10.844;2023-02-03T00:28:45;99944.28;;;6.35;100.00
53546;BME280;39432;51.902;10.844;2023-02-03T00:31:17;99937.84;;;6.29;100.00
53546;BME280;39432;51.902;10.844;2023-02-03T00:33:52;99926.16;;;6.29;100.00
53546;BME280;39432;51.902;10.844;2023-02-03T00:36:23;99924.38;;;6.41;100.00
53546;BME280;39432;51.902;10.844;2023-02-03T00:38:53;99924.47;;;6.53;100.00
53546;BME280;39432;51.902;10.844;2023-02-03T00:41:28;99915.59;;;6.64;100.00
53546;BME280;39432;51.902;10.844;2023-02-03T00:43:58;99912.66;;;6.66;100.00
53546;BME280;39432;51.902;10.844;2023-02-03T00:46:28;99914.91;;;6.50;100.00
53546;BME280;39432;51.902;10.844;2023-02-03T00:48:57;99907.81;;;6.49;100.00
53546;BME280;39432;51.902;10.844;2023-02-03T00:51:27;99911.03;;;6.58;100.00
53546;BME280;39432;51.902;10.844;2023-02-03T00:53:56;99915.66;;;6.57;100.00
53546;BME280;39432;51.902;10.844;2023-02-03T00:56:31;99912.34;;;6.74;100.00
53546;BME280;39432;51.902;10.844;2023-02-03T00:59:00;99907.97;;;6.73;100.00
53546;BME280;39432;51.902;10.844;2023-02-03T01:01:30;99899.50;;;6.81;100.00
53546;BME280;39432;51.902;10.844;2023-02-03T01:04:00;99892.72;;;6.90;100.00
53546;BME280;39432;51.902;10.844;2023-02-03T01:06:30;99893.03;;;6.82;100.00
53546;BME280;39432;51.902;10.844;2023-02-03T01:09:00;99915.06;;;6.92;100.00
53546;BME280;39432;51.902;10.844;2023-02-03T01:11:34;99907.06;;;6.97;100.00
53546;BME280;39432;51.902;10.844;2023-02-03T01:14:03;99908.59;;;6.93;100.00
53546;BME280;39432;51.902;10.844;2023-02-03T01:16:35;99904.81;;;6.94;100.00
53546;BME280;39432;51.902;10.844;2023-02-03T01:19:05;99905.56;;;7.01;100.00
53546;BME280;39432;51.902;10.844;2023-02-03T01:21:35;99901.63;;;6.97;100.00
53546;BME280;39432;51.902;10.844;2023-02-03T01:24:05;99901.44;;;6.99;100.00
53546;BME280;39432;51.902;10.844;2023-02-03T01:26:40;99905.50;;;7.08;100.00
53546;BME280;39432;51.902;10.844;2023-02-03T01:29:10;99898.31;;;7.13;100.00
53546;BME280;39432;51.902;10.844;2023-02-03T01:31:40;99894.56;;;7.15;100.00
53546;BME280;39432;51.902;10.844;2023-02-03T01:34:12;99895.00;;;7.11;100.00
53546;BME280;39432;51.902;10.844;2023-02-03T01:36:42;99913.72;;;7.20;100.00
53546;BME280;39432;51.902;10.844;2023-02-03T01:39:12;99898.44;;;7.19;100.00
53546;BME280;39432;51.902;10.844;2023-02-03T01:41:47;99892.09;;;7.25;100.00
53546;BME280;39432;51.902;10.844;2023-02-03T01:44:37;99876.09;;;7.17;100.00
53546;BME280;39432;51.902;10.844;2023-02-03T01:47:13;99884.25;;;7.17;100.00
53546;BME280;39432;51.902;10.844;2023-02-03T01:49:48;99888.19;;;7.21;100.00
53546;BME280;39432;51.902;10.844;2023-02-03T01:52:20;99883.03;;;7.31;100.00
53546;BME280;39432;51.902;10.844;2023-02-03T01:54:51;99873.72;;;7.38;100.00
53546;BME280;39432;51.902;10.844;2023-02-03T01:57:29;99866.53;;;7.44;100.00
53546;BME280;39432;51.902;10.844;2023-02-03T02:00:01;99869.38;;;7.49;100.00
53546;BME280;39432;51.902;10.844;2023-02-03T02:02:39;99864.19;;;7.48;100.00
53546;BME280;39432;51.902;10.844;2023-02-03T02:05:15;99845.00;;;7.54;100.00
53546;BME280;39432;51.902;10.844;2023-02-03T02:07:46;99848.72;;;7.60;100.00
53546;BME280;39432;51.902;10.844;2023-02-03T02:10:17;99850.75;;;7.64;100.00
53546;BME280;39432;51.902;10.844;2023-02-03T02:12:49;99856.19;;;7.64;100.00
53546;BME280;39432;51.902;10.844;2023-02-03T02:15:20;99845.28;;;7.64;100.00
53546;BME280;39432;51.902;10.844;2023-02-03T02:18:12;99844.34;;;7.71;100.00
53546;BME280;39432;51.902;10.844;2023-02-03T02:24:25;99833.66;;;7.69;100.00
53546;BME280;39432;51.902;10.844;2023-02-03T02:27:04;99828.94;;;7.64;100.00
53546;BME280;39432;51.902;10.844;2023-02-03T02:33:01;99795.53;;;7.57;100.00
53546;BME280;39432;51.902;10.844;2023-02-03T02:35:47;99798.38;;;7.62;100.00
53546;BME280;39432;51.902;10.844;2023-02-03T02:38:27;99809.06;;;7.64;100.00
53546;BME280;39432;51.902;10.844;2023-02-03T02:41:04;99808.94;;;7.59;100.00
53546;BME280;39432;51.902;10.844;2023-02-03T02:43:40;99799.94;;;7.58;100.00
53546;BME280;39432;51.902;10.844;2023-02-03T02:46:12;99797.22;;;7.58;100.00
53546;BME280;39432;51.902;10.844;2023-02-03T02:48:50;99788.81;;;7.60;100.00
53546;BME280;39432;51.902;10.844;2023-02-03T02:51:22;99794.59;;;7.63;100.00
53546;BME280;39432;51.902;10.844;2023-02-03T02:53:56;99795.44;;;7.64;100.00
53546;BME280;39432;51.902;10.844;2023-02-03T02:56:31;99783.59;;;7.58;100.00
53546;BME280;39432;51.902;10.844;2023-02-03T02:59:03;99792.22;;;7.55;100.00
53546;BME280;39432;51.902;10.844;2023-02-03T03:01:34;99773.41;;;7.54;100.00
53546;BME280;39432;51.902;10.844;2023-02-03T03:04:14;99775.44;;;7.58;100.00
53546;BME280;39432;51.902;10.844;2023-02-03T03:06:48;99778.84;;;7.54;100.00
53546;BME280;39432;51.902;10.844;2023-02-03T03:09:23;99775.44;;;7.58;100.00
53546;BME280;39432;51.902;10.844;2023-02-03T03:11:56;99781.56;;;7.54;100.00
53546;BME280;39432;51.902;10.844;2023-02-03T03:14:30;99778.25;;;7.63;100.00
53546;BME280;39432;51.902;10.844;2023-02-03T03:17:03;99766.41;;;7.58;100.00
53546;BME280;39432;51.902;10.844;2023-02-03T03:19:39;99749.38;;;7.62;100.00
53546;BME280;39432;51.902;10.844;2023-02-03T03:22:12;99753.66;;;7.58;100.00
53546;BME280;39432;51.902;10.844;2023-02-03T03:24:46;99741.81;;;7.64;100.00
53546;BME280;39432;51.902;10.844;2023-02-03T03:27:20;99718.34;;;7.63;100.00
53546;BME280;39432;51.902;10.844;2023-02-03T03:29:54;99720.13;;;7.58;100.00
53546;BME280;39432;51.902;10.844;2023-02-03T03:32:26;99700.84;;;7.59;100.00
53546;BME280;39432;51.902;10.844;2023-02-03T03:35:02;99700.84;;;7.59;100.00
53546;BME280;39432;51.902;10.844;2023-02-03T03:37:34;99711.13;;;7.57;100.00
53546;BME280;39432;51.902;10.844;2023-02-03T03:40:09;99731.25;;;7.56;100.00
53546;BME280;39432;51.902;10.844;2023-02-03T03:42:44;99741.00;;;7.64;100.00
53546;BME280;39432;51.902;10.844;2023-02-03T03:45:20;99740.88;;;7.71;100.00
53546;BME280;39432;51.902;10.844;2023-02-03T03:47:55;99747.59;;;7.68;100.00
53546;BME280;39432;51.902;10.844;2023-02-03T03:50:31;99742.66;;;7.77;100.00
53546;BME280;39432;51.902;10.844;2023-02-03T03:53:04;99739.94;;;7.77;100.00
53546;BME280;39432;51.902;10.844;2023-02-03T03:55:36;99735.56;;;7.76;100.00
53546;BME280;39432;51.902;10.844;2023-02-03T03:58:11;99713.16;;;7.74;100.00
53546;BME280;39432;51.902;10.844;2023-02-03T04:00:43;99695.03;;;7.79;100.00
53546;BME280;39432;51.902;10.844;2023-02-03T04:03:16;99716.94;;;7.84;100.00
53546;BME280;39432;51.902;10.844;2023-02-03T04:05:49;99707.81;;;7.90;100.00
53546;BME280;39432;51.902;10.844;2023-02-03T04:08:18;99698.94;;;7.95;100.00
53546;BME280;39432;51.902;10.844;2023-02-03T04:10:48;99699.88;;;7.89;100.00
53546;BME280;39432;51.902;10.844;2023-02-03T04:13:17;99681.31;;;7.98;100.00
53546;BME280;39432;51.902;10.844;2023-02-03T04:15:47;99678.34;;;7.99;100.00
53546;BME280;39432;51.902;10.844;2023-02-03T04:18:16;99664.25;;;8.02;100.00
53546;BME280;39432;51.902;10.844;2023-02-03T04:20:49;99651.66;;;8.01;100.00
53546;BME280;39432;51.902;10.844;2023-02-03T04:23:19;99644.56;;;8.00;100.00
53546;BME280;39432;51.902;10.844;2023-02-03T04:25:48;99646.09;;;7.96;100.00
53546;BME280;39432;51.902;10.844;2023-02-03T04:28:18;99643.72;;;8.11;100.00
53546;BME280;39432;51.902;10.844;2023-02-03T04:30:47;99636.38;;;8.00;100.00
53546;BME280;39432;51.902;10.844;2023-02-03T04:33:17;99621.00;;;7.94;100.00
53546;BME280;39432;51.902;10.844;2023-02-03T04:35:49;99612.25;;;7.92;100.00
53546;BME280;39432;51.902;10.844;2023-02-03T04:38:19;99605.50;;;7.95;100.00
53546;BME280;39432;51.902;10.844;2023-02-03T04:40:48;99593.78;;;7.94;100.00
53546;BME280;39432;51.902;10.844;2023-02-03T04:43:18;99601.22;;;7.99;100.00
53546;BME280;39432;51.902;10.844;2023-02-03T04:45:47;99594.59;;;7.95;100.00
53546;BME280;39432;51.902;10.844;2023-02-03T04:48:17;99597.56;;;7.93;100.00
53546;BME280;39432;51.902;10.844;2023-02-03T04:50:49;99596.97;;;7.91;100.00
53546;BME280;39432;51.902;10.844;2023-02-03T04:53:19;99587.84;;;7.97;100.00
53546;BME280;39432;51.902;10.844;2023-02-03T04:55:48;99570.03;;;8.06;100.00
53546;BME280;39432;51.902;10.844;2023-02-03T04:58:18;99588.25;;;8.17;100.00
53546;BME280;39432;51.902;10.844;2023-02-03T05:00:47;99572.88;;;8.11;100.00
53546;BME280;39432;51.902;10.844;2023-02-03T05:03:17;99574.19;;;8.09;100.00
53546;BME280;39432;51.902;10.844;2023-02-03T05:05:50;99581.13;;;8.16;100.00
53546;BME280;39432;51.902;10.844;2023-02-03T05:08:20;99579.50;;;8.15;100.00
53546;BME280;39432;51.902;10.844;2023-02-03T05:10:50;99601.75;;;8.12;100.00
53546;BME280;39432;51.902;10.844;2023-02-03T05:13:20;99596.41;;;8.17;100.00
53546;BME280;39432;51.902;10.844;2023-02-03T05:15:49;99592.03;;;8.16;100.00
53546;BME280;39432;51.902;10.844;2023-02-03T05:18:19;99587.16;;;8.18;100.00
53546;BME280;39432;51.902;10.844;2023-02-03T05:20:51;99585.41;;;8.12;100.00
53546;BME280;39432;51.902;10.844;2023-02-03T05:23:21;99578.91;;;8.13;100.00
53546;BME280;39432;51.902;10.844;2023-02-03T05:25:51;99578.41;;;8.16;100.00
53546;BME280;39432;51.902;10.844;2023-02-03T05:28:20;99568.09;;;8.18;100.00
53546;BME280;39432;51.902;10.844;2023-02-03T05:30:50;99557.69;;;8.15;100.00
53546;BME280;39432;51.902;10.844;2023-02-03T05:33:19;99567.41;;;8.11;100.00
53546;BME280;39432;51.902;10.844;2023-02-03T05:35:51;99560.47;;;8.04;100.00
53546;BME280;39432;51.902;10.844;2023-02-03T05:38:21;99555.00;;;8.04;100.00
53546;BME280;39432;51.902;10.844;2023-02-03T05:40:51;99559.97;;;8.07;100.00
53546;BME280;39432;51.902;10.844;2023-02-03T05:43:42;99552.88;;;8.06;100.00
53546;BME280;39432;51.902;10.844;2023-02-03T05:46:12;99553.69;;;8.06;100.00
53546;BME280;39432;51.902;10.844;2023-02-03T05:48:42;99547.09;;;8.02;100.00
53546;BME280;39432;51.902;10.844;2023-02-03T05:51:14;99546.13;;;8.08;100.00
53546;BME280;39432;51.902;10.844;2023-02-03T05:53:44;99535.53;;;8.12;100.00
53546;BME280;39432;51.902;10.844;2023-02-03T05:56:14;99522.25;;;8.15;100.00
53546;BME280;39432;51.902;10.844;2023-02-03T05:58:44;99532.50;;;8.37;100.00
53546;BME280;39432;51.902;10.844;2023-02-03T06:01:13;99544.41;;;8.19;100.00
53546;BME280;39432;51.902;10.844;2023-02-03T06:03:45;99534.72;;;8.11;100.00
53546;BME280;39432;51.902;10.844;2023-02-03T06:06:18;99525.00;;;8.15;100.00
53546;BME280;39432;51.902;10.844;2023-02-03T06:08:48;99522.63;;;8.07;100.00
53546;BME280;39432;51.902;10.844;2023-02-03T06:11:22;99524.31;;;8.08;100.00
53546;BME280;39432;51.902;10.844;2023-02-03T06:13:52;99529.53;;;8.10;100.00
53546;BME280;39432;51.902;10.844;2023-02-03T06:16:24;99524.91;;;8.10;100.00
53546;BME280;39432;51.902;10.844;2023-02-03T06:18:55;99526.06;;;8.14;100.00
53546;BME280;39432;51.902;10.844;2023-02-03T06:21:30;99525.25;;;8.14;100.00
53546;BME280;39432;51.902;10.844;2023-02-03T06:23:59;99530.44;;;8.15;100.00
53546;BME280;39432;51.902;10.844;2023-02-03T06:26:29;99535.63;;;8.17;100.00
53546;BME280;39432;51.902;10.844;2023-02-03T06:28:59;99546.69;;;8.10;100.00
53546;BME280;39432;51.902;10.844;2023-02-03T06:31:28;99548.63;;;7.98;100.00
53546;BME280;39432;51.902;10.844;2023-02-03T06:33:58;99556.66;;;8.05;100.00
53546;BME280;39432;51.902;10.844;2023-02-03T06:36:30;99538.03;;;8.13;100.00
53546;BME280;39432;51.902;10.844;2023-02-03T06:39:00;99561.59;;;8.19;100.00
53546;BME280;39432;51.902;10.844;2023-02-03T06:41:30;99554.72;;;8.17;100.00
53546;BME280;39432;51.902;10.844;2023-02-03T06:43:59;99549.88;;;8.07;100.00
53546;BME280;39432;51.902;10.844;2023-02-03T06:46:29;99543.88;;;8.05;100.00
53546;BME280;39432;51.902;10.844;2023-02-03T06:48:59;99550.84;;;8.01;100.00
53546;BME280;39432;51.902;10.844;2023-02-03T06:51:32;99544.94;;;8.04;100.00
53546;BME280;39432;51.902;10.844;2023-02-03T06:54:02;99562.94;;;8.05;100.00
53546;BME280;39432;51.902;10.844;2023-02-03T06:56:31;99557.00;;;8.08;100.00
53546;BME280;39432;51.902;10.844;2023-02-03T06:59:01;99544.69;;;8.06;100.00
53546;BME280;39432;51.902;10.844;2023-02-03T07:01:30;99549.88;;;8.07;100.00
53546;BME280;39432;51.902;10.844;2023-02-03T07:04:00;99534.03;;;8.04;100.00
53546;BME280;39432;51.902;10.844;2023-02-03T07:06:32;99547.41;;;8.06;100.00
53546;BME280;39432;51.902;10.844;2023-02-03T07:09:03;99546.59;;;8.05;100.00
53546;BME280;39432;51.902;10.844;2023-02-03T07:11:33;99540.66;;;8.08;100.00
53546;BME280;39432;51.902;10.844;2023-02-03T07:14:03;99515.69;;;8.00;100.00
53546;BME280;39432;51.902;10.844;2023-02-03T07:16:33;99518.16;;;8.01;100.00
53546;BME280;39432;51.902;10.844;2023-02-03T07:19:04;99513.91;;;8.05;100.00
53546;BME280;39432;51.902;10.844;2023-02-03T07:21:36;99503.00;;;8.05;100.00
53546;BME280;39432;51.902;10.844;2023-02-03T07:24:06;99503.34;;;8.09;100.00
53546;BME280;39432;51.902;10.844;2023-02-03T07:26:36;99514.25;;;8.09;100.00
53546;BME280;39432;51.902;10.844;2023-02-03T07:29:06;99491.84;;;8.07;100.00
53546;BME280;39432;51.902;10.844;2023-02-03T07:31:35;99499.19;;;8.06;100.00
53546;BME280;39432;51.902;10.844;2023-02-03T07:34:05;99485.19;;;8.14;100.00
53546;BME280;39432;51.902;10.844;2023-02-03T07:36:37;99499.78;;;8.08;100.00
53546;BME280;39432;51.902;10.844;2023-02-03T07:39:07;99494.91;;;8.10;100.00
53546;BME280;39432;51.902;10.844;2023-02-03T07:41:36;99513.53;;;8.13;100.00
53546;BME280;39432;51.902;10.844;2023-02-03T07:44:06;99496.56;;;8.11;100.00
53546;BME280;39432;51.902;10.844;2023-02-03T07:46:36;99526.63;;;8.16;100.00
53546;BME280;39432;51.902;10.844;2023-02-03T07:49:10;99476.28;;;8.19;100.00
53546;BME280;39432;51.902;10.844;2023-02-03T07:51:42;99496.66;;;8.16;100.00
53546;BME280;39432;51.902;10.844;2023-02-03T07:54:12;99481.41;;;8.15;100.00
53546;BME280;39432;51.902;10.844;2023-02-03T07:56:42;99486.50;;;8.12;100.00
53546;BME280;39432;51.902;10.844;2023-02-03T07:59:11;99482.78;;;8.18;100.00
53546;BME280;39432;51.902;10.844;2023-02-03T08:01:41;99467.34;;;8.24;100.00
53546;BME280;39432;51.902;10.844;2023-02-03T08:04:10;99482.56;;;8.19;100.00
53546;BME280;39432;51.902;10.844;2023-02-03T08:06:44;99476.69;;;8.28;100.00
53546;BME280;39432;51.902;10.844;2023-02-03T08:09:15;99473.97;;;8.28;100.00
53546;BME280;39432;51.902;10.844;2023-02-03T08:11:45;99471.91;;;8.35;100.00
53546;BME280;39432;51.902;10.844;2023-02-03T08:14:15;99453.34;;;8.32;100.00
53546;BME280;39432;51.902;10.844;2023-02-03T08:16:44;99438.56;;;8.44;100.00
53546;BME280;39432;51.902;10.844;2023-02-03T08:19:14;99431.72;;;8.42;100.00
53546;BME280;39432;51.902;10.844;2023-02-03T08:21:47;99421.31;;;8.39;100.00
53546;BME280;39432;51.902;10.844;2023-02-03T08:24:17;99444.84;;;8.45;100.00
53546;BME280;39432;51.902;10.844;2023-02-03T08:26:46;99435.63;;;8.46;100.00
53546;BME280;39432;51.902;10.844;2023-02-03T08:29:16;99449.47;;;8.44;100.00
53546;BME280;39432;51.902;10.844;2023-02-03T08:31:45;99449.31;;;8.51;100.00
53546;BME280;39432;51.902;10.844;2023-02-03T08:34:15;99446.59;;;8.51;100.00
53546;BME280;39432;51.902;10.844;2023-02-03T08:36:47;99431.91;;;8.52;100.00
53546;BME280;39432;51.902;10.844;2023-02-03T08:39:17;99434.38;;;8.54;100.00
53546;BME280;39432;51.902;10.844;2023-02-03T08:41:46;99427.59;;;8.56;100.00
53546;BME280;39432;51.902;10.844;2023-02-03T08:44:16;99433.56;;;8.53;100.00
53546;BME280;39432;51.902;10.844;2023-02-03T08:46:48;99435.69;;;8.51;100.00
53546;BME280;39432;51.902;10.844;2023-02-03T08:49:18;99432.47;;;8.54;100.00
53546;BME280;39432;51.902;10.844;2023-02-03T08:51:50;99429.75;;;8.54;100.00
53546;BME280;39432;51.902;10.844;2023-02-03T08:54:21;99430.16;;;8.63;100.00
53546;BME280;39432;51.902;10.844;2023-02-03T08:56:51;99421.31;;;8.56;100.00
53546;BME280;39432;51.902;10.844;2023-02-03T08:59:20;99434.28;;;8.65;100.00
53546;BME280;39432;51.902;10.844;2023-02-03T09:01:51;99449.91;;;8.70;100.00
53546;BME280;39432;51.902;10.844;2023-02-03T09:04:20;99437.34;;;8.69;100.00
53546;BME280;39432;51.902;10.844;2023-02-03T09:06:53;99447.44;;;8.68;100.00
53546;BME280;39432;51.902;10.844;2023-02-03T09:09:23;99466.75;;;8.67;100.00
53546;BME280;39432;51.902;10.844;2023-02-03T09:11:54;99477.66;;;8.67;100.00
53546;BME280;39432;51.902;10.844;2023-02-03T09:14:28;99467.56;;;8.67;100.00
53546;BME280;39432;51.902;10.844;2023-02-03T09:16:58;99464.75;;;8.62;100.00
53546;BME280;39432;51.902;10.844;2023-02-03T09:19:29;99473.53;;;8.64;100.00
53546;BME280;39432;51.902;10.844;2023-02-03T09:22:04;99480.63;;;8.65;100.00
53546;BME280;39432;51.902;10.844;2023-02-03T09:24:34;99488.34;;;8.68;100.00
53546;BME280;39432;51.902;10.844;2023-02-03T09:27:04;99481.19;;;8.67;100.00
53546;BME280;39432;51.902;10.844;2023-02-03T09:29:34;99488.16;;;8.58;100.00
53546;BME280;39432;51.902;10.844;2023-02-03T09:32:04;99497.25;;;8.47;100.00
53546;BME280;39432;51.902;10.844;2023-02-03T09:34:36;99483.06;;;8.33;100.00
53546;BME280;39432;51.902;10.844;2023-02-03T09:37:09;99483.69;;;8.24;100.00
53546;BME280;39432;51.902;10.844;2023-02-03T09:39:39;99488.78;;;8.32;100.00
53546;BME280;39432;51.902;10.844;2023-02-03T09:42:32;99490.31;;;8.28;100.00
53546;BME280;39432;51.902;10.844;2023-02-03T09:45:11;99486.84;;;8.15;100.00
53546;BME280;39432;51.902;10.844;2023-02-03T09:47:45;99471.94;;;8.06;100.00
53546;BME280;39432;51.902;10.844;2023-02-03T09:50:21;99474.09;;;8.04;100.00
53546;BME280;39432;51.902;10.844;2023-02-03T09:52:56;99464.19;;;7.98;100.00
53546;BME280;39432;51.902;10.844;2023-02-03T09:55:32;99466.31;;;7.96;100.00
53546;BME280;39432;51.902;10.844;2023-02-03T09:58:04;99476.72;;;7.99;100.00
53546;BME280;39432;51.902;10.844;2023-02-03T10:00:40;99494.72;;;8.00;100.00
53546;BME280;39432;51.902;10.844;2023-02-03T10:03:18;99495.22;;;7.97;100.00
53546;BME280;39432;51.902;10.844;2023-02-03T10:06:09;99498.72;;;8.09;100.00
53546;BME280;39432;51.902;10.844;2023-02-03T10:09:06;99491.63;;;8.08;100.00
53546;BME280;39432;51.902;10.844;2023-02-03T10:11:51;99499.75;;;8.20;100.00
53546;BME280;39432;51.902;10.844;2023-02-03T10:14:34;99490.97;;;8.18;100.00
53546;BME280;39432;51.902;10.844;2023-02-03T10:17:16;99488.16;;;8.13;100.00
53546;BME280;39432;51.902;10.844;2023-02-03T10:19:51;99497.06;;;8.08;100.00
53546;BME280;39432;51.902;10.844;2023-02-03T10:22:26;99494.91;;;8.10;100.00
53546;BME280;39432;51.902;10.844;2023-02-03T10:25:05;99522.63;;;8.07;100.00
53546;BME280;39432;51.902;10.844;2023-02-03T10:27:36;99508.44;;;8.05;100.00
53546;BME280;39432;51.902;10.844;2023-02-03T10:30:23;99517.19;;;8.07;100.00
53546;BME280;39432;51.902;10.844;2023-02-03T10:32:59;99513.78;;;8.00;100.00
53546;BME280;39432;51.902;10.844;2023-02-03T10:35:35;99523.63;;;8.01;100.00
53546;BME280;39432;51.902;10.844;2023-02-03T10:38:12;99523.28;;;7.98;100.00
53546;BME280;39432;51.902;10.844;2023-02-03T10:40:46;99507.78;;;7.98;100.00
53546;BME280;39432;51.902;10.844;2023-02-03T10:43:16;99534.88;;;8.05;100.00
53546;BME280;39432;51.902;10.844;2023-02-03T10:46:04;99529.38;;;8.16;100.00
53546;BME280;39432;51.902;10.844;2023-02-03T10:48:34;99528.69;;;8.09;100.00
53546;BME280;39432;51.902;10.844;2023-02-03T10:51:04;99525.16;;;8.09;100.00
53546;BME280;39432;51.902;10.844;2023-02-03T10:53:40;99530.09;;;8.12;100.00
53546;BME280;39432;51.902;10.844;2023-02-03T10:56:16;99518.03;;;8.08;100.00
53546;BME280;39432;51.902;10.844;2023-02-03T10:58:48;99535.69;;;8.05;100.00
53546;BME280;39432;51.902;10.844;2023-02-03T11:01:20;99552.03;;;8.05;100.00
53546;BME280;39432;51.902;10.844;2023-02-03T11:03:58;99550.59;;;8.14;100.00
53546;BME280;39432;51.902;10.844;2023-02-03T11:06:30;99548.94;;;8.13;100.00
53546;BME280;39432;51.902;10.844;2023-02-03T11:09:21;99560.09;;;8.00;100.00
53546;BME280;39432;51.902;10.844;2023-02-03T11:12:05;99559.53;;;7.98;100.00
53546;BME280;39432;51.902;10.844;2023-02-03T11:14:37;99555.63;;;7.94;100.00
53546;BME280;39432;51.902;10.844;2023-02-03T11:17:14;99562.63;;;7.90;100.00
53546;BME280;39432;51.902;10.844;2023-02-03T11:19:46;99575.78;;;7.93;100.00
53546;BME280;39432;51.902;10.844;2023-02-03T11:22:26;99576.25;;;7.90;100.00
53546;BME280;39432;51.902;10.844;2023-02-03T11:24:57;99568.56;;;7.87;100.00
53546;BME280;39432;51.902;10.844;2023-02-03T11:27:31;99587.13;;;7.90;100.00
53546;BME280;39432;51.902;10.844;2023-02-03T11:30:12;99581.00;;;7.83;100.00
53546;BME280;39432;51.902;10.844;2023-02-03T11:32:45;99584.31;;;7.85;100.00
53546;BME280;39432;51.902;10.844;2023-02-03T11:35:17;99578.84;;;7.85;100.00
53546;BME280;39432;51.902;10.844;2023-02-03T11:37:51;99575.09;;;7.86;100.00
53546;BME280;39432;51.902;10.844;2023-02-03T11:40:24;99581.69;;;7.90;100.00
53546;BME280;39432;51.902;10.844;2023-02-03T11:43:02;99573.63;;;7.95;100.00
53546;BME280;39432;51.902;10.844;2023-02-03T11:45:37;99577.13;;;8.07;100.00
53546;BME280;39432;51.902;10.844;2023-02-03T11:48:23;99567.25;;;8.18;100.00
53546;BME280;39432;51.902;10.844;2023-02-03T11:51:00;99554.09;;;8.27;100.00
53546;BME280;39432;51.902;10.844;2023-02-03T11:53:42;99547.56;;;8.28;100.00
53546;BME280;39432;51.902;10.844;2023-02-03T11:56:30;99543.66;;;8.24;100.00
53546;BME280;39432;51.902;10.844;2023-02-03T11:59:37;99543.66;;;8.24;100.00
53546;BME280;39432;51.902;10.844;2023-02-03T12:02:30;99541.53;;;8.26;100.00
53546;BME280;39432;51.902;10.844;2023-02-03T12:05:13;99540.91;;;8.35;100.00
53546;BME280;39432;51.902;10.844;2023-02-03T12:08:02;99540.56;;;8.32;100.00
53546;BME280;39432;51.902;10.844;2023-02-03T12:10:42;99532.50;;;8.37;100.00
53546;BME280;39432;51.902;10.844;2023-02-03T12:13:27;99523.81;;;8.40;100.00
53546;BME280;39432;51.902;10.844;2023-02-03T12:16:13;99519.44;;;8.39;100.00
53546;BME280;39432;51.902;10.844;2023-02-03T12:18:55;99519.06;;;8.47;100.00
53546;BME280;39432;51.902;10.844;2023-02-03T12:21:42;99505.91;;;8.44;100.00
53546;BME280;39432;51.902;10.844;2023-02-03T12:24:27;99500.88;;;8.36;100.00
53546;BME280;39432;51.902;10.844;2023-02-03T12:27:12;99496.16;;;8.48;100.00
53546;BME280;39432;51.902;10.844;2023-02-03T12:29:48;99502.78;;;8.52;100.00
53546;BME280;39432;51.902;10.844;2023-02-03T12:32:28;99506.56;;;8.51;100.00
53546;BME280;39432;51.902;10.844;2023-02-03T12:35:04;99505.25;;;8.54;100.00
53546;BME280;39432;51.902;10.844;2023-02-03T12:37:44;99501.28;;;8.44;100.00
53546;BME280;39432;51.902;10.844;2023-02-03T12:40:21;99515.81;;;8.50;100.00
53546;BME280;39432;51.902;10.844;2023-02-03T12:42:57;99509.38;;;8.39;100.00
53546;BME280;39432;51.902;10.844;2023-02-03T12:45:30;99523.44;;;8.48;100.00
53546;BME280;39432;51.902;10.844;2023-02-03T12:48:09;99538.25;;;8.52;100.00
53546;BME280;39432;51.902;10.844;2023-02-03T12:50:43;99521.28;;;8.50;100.00
53546;BME280;39432;51.902;10.844;2023-02-03T12:53:17;99516.25;;;8.59;100.00
53546;BME280;39432;51.902;10.844;2023-02-03T12:55:54;99528.88;;;8.48;100.00
53546;BME280;39432;51.902;10.844;2023-02-03T12:58:29;99524.59;;;8.52;100.00
53546;BME280;39432;51.902;10.844;2023-02-03T13:01:03;99536.16;;;8.42;100.00
53546;BME280;39432;51.902;10.844;2023-02-03T13:03:41;99543.34;;;8.49;100.00
53546;BME280;39432;51.902;10.844;2023-02-03T13:06:16;99552.19;;;8.56;100.00
53546;BME280;39432;51.902;10.844;2023-02-03T13:08:53;99552.03;;;8.62;100.00
53546;BME280;39432;51.902;10.844;2023-02-03T13:11:28;99545.91;;;8.55;100.00
53546;BME280;39432;51.902;10.844;2023-02-03T13:14:07;99555.25;;;8.59;100.00
53546;BME280;39432;51.902;10.844;2023-02-03T13:16:43;99566.56;;;8.51;100.00
53546;BME280;39432;51.902;10.844;2023-02-03T13:19:26;99548.53;;;8.50;100.00
53546;BME280;39432;51.902;10.844;2023-02-03T13:21:57;99543.09;;;8.50;100.00
53546;BME280;39432;51.902;10.844;2023-02-03T13:24:28;99528.88;;;8.48;100.00
53546;BME280;39432;51.902;10.844;2023-02-03T13:27:11;99542.00;;;8.51;100.00
53546;BME280;39432;51.902;10.844;2023-02-03T13:29:52;99552.44;;;8.54;100.00